sensor_id;sensor_type;location;lat;lon;timestamp;P1;durP1;ratioP1;P2;durP2;ratioP2
2021;SDS011;1015;49.756;6.994;2023-05-07T00:01:44;3.20;;;2.90;;
2021;SDS011;1015;49.756;6.994;2023-05-07T00:04:11;3.50;;;3.20;;
2021;SDS011;1015;49.756;6.994;2023-05-07T00:06:39;5.57;;;2.83;;
2021;SDS011;1015;49.756;6.994;2023-05-07T00:09:06;3.27;;;2.70;;
2021;SDS011;1015;49.756;6.994;2023-05-07T00:11:33;2.80;;;2.60;;
2021;SDS011;1015;49.756;6.994;2023-05-07T00:14:01;2.80;;;2.57;;
2021;SDS011;1015;49.756;6.994;2023-05-07T00:16:29;3.07;;;2.50;;
2021;SDS011;1015;49.756;6.994;2023-05-07T00:18:57;4.40;;;2.70;;
2021;SDS011;1015;49.756;6.994;2023-05-07T00:21:24;2.93;;;2.63;;
2021;SDS011;1015;49.756;6.994;2023-05-07T00:23:52;3.70;;;2.90;;
2021;SDS011;1015;49.756;6.994;2023-05-07T00:26:19;2.90;;;2.60;;
2021;SDS011;1015;49.756;6.994;2023-05-07T00:28:46;4.40;;;2.50;;
2021;SDS011;1015;49.756;6.994;2023-05-07T00:31:13;3.43;;;2.53;;
2021;SDS011;1015;49.756;6.994;2023-05-07T00:33:42;2.43;;;2.23;;
2021;SDS011;1015;49.756;6.994;2023-05-07T00:36:09;2.50;;;2.30;;
2021;SDS011;1015;49.756;6.994;2023-05-07T00:38:36;2.67;;;2.47;;
2021;SDS011;1015;49.756;6.994;2023-05-07T00:41:04;4.20;;;2.70;;
2021;SDS011;1015;49.756;6.994;2023-05-07T00:43:31;2.50;;;2.30;;
2021;SDS011;1015;49.756;6.994;2023-05-07T00:45:58;2.77;;;2.57;;
2021;SDS011;1015;49.756;6.994;2023-05-07T00:48:26;3.43;;;2.67;;
2021;SDS011;1015;49.756;6.994;2023-05-07T00:50:55;2.90;;;2.70;;
2021;SDS011;1015;49.756;6.994;2023-05-07T00:53:22;4.10;;;2.20;;
2021;SDS011;1015;49.756;6.994;2023-05-07T00:55:49;2.50;;;2.30;;
2021;SDS011;1015;49.756;6.994;2023-05-07T00:58:16;2.70;;;2.50;;
2021;SDS011;1015;49.756;6.994;2023-05-07T01:00:44;2.80;;;2.50;;
2021;SDS011;1015;49.756;6.994;2023-05-07T01:03:11;2.90;;;2.60;;
2021;SDS011;1015;49.756;6.994;2023-05-07T01:05:38;4.10;;;3.00;;
2021;SDS011;1015;49.756;6.994;2023-05-07T01:08:07;3.53;;;2.70;;
2021;SDS011;1015;49.756;6.994;2023-05-07T01:10:34;2.97;;;2.70;;
2021;SDS011;1015;49.756;6.994;2023-05-07T01:13:01;3.67;;;2.70;;
2021;SDS011;1015;49.756;6.994;2023-05-07T01:15:28;2.70;;;2.50;;
2021;SDS011;1015;49.756;6.994;2023-05-07T01:17:55;3.70;;;3.07;;
2021;SDS011;1015;49.756;6.994;2023-05-07T01:20:23;3.10;;;2.80;;
2021;SDS011;1015;49.756;6.994;2023-05-07T01:22:52;3.30;;;3.00;;
2021;SDS011;1015;49.756;6.994;2023-05-07T01:25:20;3.57;;;2.93;;
2021;SDS011;1015;49.756;6.994;2023-05-07T01:27:47;4.23;;;3.53;;
2021;SDS011;1015;49.756;6.994;2023-05-07T01:30:14;3.40;;;3.10;;
2021;SDS011;1015;49.756;6.994;2023-05-07T01:32:43;4.50;;;3.40;;
2021;SDS011;1015;49.756;6.994;2023-05-07T01:35:14;3.50;;;3.20;;
2021;SDS011;1015;49.756;6.994;2023-05-07T01:37:42;3.07;;;2.77;;
2021;SDS011;1015;49.756;6.994;2023-05-07T01:40:11;4.00;;;2.90;;
2021;SDS011;1015;49.756;6.994;2023-05-07T01:42:38;5.00;;;3.30;;
2021;SDS011;1015;49.756;6.994;2023-05-07T01:45:06;3.10;;;2.80;;
2021;SDS011;1015;49.756;6.994;2023-05-07T01:47:34;3.50;;;3.20;;
2021;SDS011;1015;49.756;6.994;2023-05-07T01:50:01;4.10;;;3.67;;
2021;SDS011;1015;49.756;6.994;2023-05-07T01:52:28;3.80;;;3.50;;
2021;SDS011;1015;49.756;6.994;2023-05-07T01:54:56;4.33;;;3.90;;
2021;SDS011;1015;49.756;6.994;2023-05-07T01:57:24;5.10;;;3.40;;
2021;SDS011;1015;49.756;6.994;2023-05-07T01:59:51;3.80;;;3.40;;
2021;SDS011;1015;49.756;6.994;2023-05-07T02:02:19;4.17;;;3.77;;
2021;SDS011;1015;49.756;6.994;2023-05-07T02:04:46;3.83;;;3.50;;
2021;SDS011;1015;49.756;6.994;2023-05-07T02:07:13;4.80;;;4.30;;
2021;SDS011;1015;49.756;6.994;2023-05-07T02:09:40;4.80;;;4.30;;
2021;SDS011;1015;49.756;6.994;2023-05-07T02:12:07;5.07;;;4.53;;
2021;SDS011;1015;49.756;6.994;2023-05-07T02:14:36;4.30;;;3.90;;
2021;SDS011;1015;49.756;6.994;2023-05-07T02:17:03;4.50;;;4.10;;
2021;SDS011;1015;49.756;6.994;2023-05-07T02:19:31;4.57;;;4.17;;
2021;SDS011;1015;49.756;6.994;2023-05-07T02:21:58;5.13;;;4.03;;
2021;SDS011;1015;49.756;6.994;2023-05-07T02:24:25;4.33;;;3.93;;
2021;SDS011;1015;49.756;6.994;2023-05-07T02:26:52;4.00;;;3.70;;
2021;SDS011;1015;49.756;6.994;2023-05-07T02:29:19;4.10;;;3.77;;
2021;SDS011;1015;49.756;6.994;2023-05-07T02:31:48;4.73;;;4.13;;
2021;SDS011;1015;49.756;6.994;2023-05-07T02:34:15;4.20;;;3.90;;
2021;SDS011;1015;49.756;6.994;2023-05-07T02:36:43;5.50;;;4.33;;
2021;SDS011;1015;49.756;6.994;2023-05-07T02:39:10;3.70;;;3.40;;
2021;SDS011;1015;49.756;6.994;2023-05-07T02:41:37;4.17;;;3.80;;
2021;SDS011;1015;49.756;6.994;2023-05-07T02:44:05;4.00;;;3.70;;
2021;SDS011;1015;49.756;6.994;2023-05-07T02:46:32;4.13;;;3.80;;
2021;SDS011;1015;49.756;6.994;2023-05-07T02:49:00;4.77;;;3.97;;
2021;SDS011;1015;49.756;6.994;2023-05-07T02:51:27;4.37;;;3.97;;
2021;SDS011;1015;49.756;6.994;2023-05-07T02:53:55;4.90;;;4.13;;
2021;SDS011;1015;49.756;6.994;2023-05-07T02:56:22;4.03;;;3.63;;
2021;SDS011;1015;49.756;6.994;2023-05-07T02:58:49;4.27;;;3.87;;
2021;SDS011;1015;49.756;6.994;2023-05-07T03:01:16;3.77;;;3.47;;
2021;SDS011;1015;49.756;6.994;2023-05-07T03:03:44;4.67;;;3.80;;
2021;SDS011;1015;49.756;6.994;2023-05-07T03:06:12;4.60;;;3.97;;
2021;SDS011;1015;49.756;6.994;2023-05-07T03:08:40;4.27;;;3.87;;
2021;SDS011;1015;49.756;6.994;2023-05-07T03:11:07;5.30;;;3.50;;
2021;SDS011;1015;49.756;6.994;2023-05-07T03:13:34;3.67;;;3.37;;
2021;SDS011;1015;49.756;6.994;2023-05-07T03:16:01;4.63;;;4.13;;
2021;SDS011;1015;49.756;6.994;2023-05-07T03:18:29;3.80;;;3.50;;
2021;SDS011;1015;49.756;6.994;2023-05-07T03:20:56;3.10;;;2.90;;
2021;SDS011;1015;49.756;6.994;2023-05-07T03:23:25;3.50;;;3.23;;
2021;SDS011;1015;49.756;6.994;2023-05-07T03:25:52;3.20;;;2.97;;
2021;SDS011;1015;49.756;6.994;2023-05-07T03:28:19;4.07;;;3.70;;
2021;SDS011;1015;49.756;6.994;2023-05-07T03:30:46;4.13;;;3.73;;
2021;SDS011;1015;49.756;6.994;2023-05-07T03:33:14;3.93;;;3.63;;
2021;SDS011;1015;49.756;6.994;2023-05-07T03:35:41;3.83;;;3.53;;
2021;SDS011;1015;49.756;6.994;2023-05-07T03:38:08;4.00;;;3.23;;
2021;SDS011;1015;49.756;6.994;2023-05-07T03:40:37;4.30;;;3.37;;
2021;SDS011;1015;49.756;6.994;2023-05-07T03:43:04;3.47;;;3.17;;
2021;SDS011;1015;49.756;6.994;2023-05-07T03:45:31;3.60;;;3.30;;
2021;SDS011;1015;49.756;6.994;2023-05-07T03:47:58;3.93;;;3.47;;
2021;SDS011;1015;49.756;6.994;2023-05-07T03:50:26;3.23;;;2.93;;
2021;SDS011;1015;49.756;6.994;2023-05-07T03:52:53;3.43;;;3.13;;
2021;SDS011;1015;49.756;6.994;2023-05-07T03:55:20;5.33;;;3.30;;
2021;SDS011;1015;49.756;6.994;2023-05-07T03:57:49;3.67;;;3.10;;
2021;SDS011;1015;49.756;6.994;2023-05-07T04:00:16;3.70;;;3.37;;
2021;SDS011;1015;49.756;6.994;2023-05-07T04:02:45;3.63;;;3.33;;
2021;SDS011;1015;49.756;6.994;2023-05-07T04:05:12;3.23;;;2.67;;
2021;SDS011;1015;49.756;6.994;2023-05-07T04:07:40;4.33;;;3.30;;
2021;SDS011;1015;49.756;6.994;2023-05-07T04:10:08;5.07;;;3.17;;
2021;SDS011;1015;49.756;6.994;2023-05-07T04:12:35;3.90;;;3.60;;
2021;SDS011;1015;49.756;6.994;2023-05-07T04:15:04;4.30;;;3.53;;
2021;SDS011;1015;49.756;6.994;2023-05-07T04:17:32;3.60;;;3.30;;
2021;SDS011;1015;49.756;6.994;2023-05-07T04:19:59;4.20;;;3.13;;
2021;SDS011;1015;49.756;6.994;2023-05-07T04:22:26;5.07;;;3.97;;
2021;SDS011;1015;49.756;6.994;2023-05-07T04:24:53;3.80;;;3.50;;
2021;SDS011;1015;49.756;6.994;2023-05-07T04:27:20;3.40;;;3.10;;
2021;SDS011;1015;49.756;6.994;2023-05-07T04:29:47;4.30;;;3.90;;
2021;SDS011;1015;49.756;6.994;2023-05-07T04:32:16;5.00;;;3.33;;
2021;SDS011;1015;49.756;6.994;2023-05-07T04:34:43;3.60;;;3.30;;
2021;SDS011;1015;49.756;6.994;2023-05-07T04:37:11;3.57;;;3.27;;
2021;SDS011;1015;49.756;6.994;2023-05-07T04:39:38;2.97;;;2.70;;
2021;SDS011;1015;49.756;6.994;2023-05-07T04:42:05;4.03;;;3.73;;
2021;SDS011;1015;49.756;6.994;2023-05-07T04:44:33;2.90;;;2.70;;
2021;SDS011;1015;49.756;6.994;2023-05-07T04:47:02;4.17;;;3.37;;
2021;SDS011;1015;49.756;6.994;2023-05-07T04:49:30;3.00;;;2.40;;
2021;SDS011;1015;49.756;6.994;2023-05-07T04:51:57;2.90;;;2.70;;
2021;SDS011;1015;49.756;6.994;2023-05-07T04:54:25;3.50;;;2.60;;
2021;SDS011;1015;49.756;6.994;2023-05-07T04:56:52;2.80;;;2.60;;
2021;SDS011;1015;49.756;6.994;2023-05-07T04:59:19;3.23;;;3.03;;
2021;SDS011;1015;49.756;6.994;2023-05-07T05:01:46;2.97;;;2.70;;
2021;SDS011;1015;49.756;6.994;2023-05-07T05:04:14;2.90;;;2.70;;
2021;SDS011;1015;49.756;6.994;2023-05-07T05:06:42;2.83;;;2.63;;
2021;SDS011;1015;49.756;6.994;2023-05-07T05:09:09;5.60;;;2.80;;
2021;SDS011;1015;49.756;6.994;2023-05-07T05:11:36;2.83;;;2.63;;
2021;SDS011;1015;49.756;6.994;2023-05-07T05:14:04;3.70;;;2.80;;
2021;SDS011;1015;49.756;6.994;2023-05-07T05:16:31;3.10;;;2.90;;
2021;SDS011;1015;49.756;6.994;2023-05-07T05:18:59;3.80;;;2.87;;
2021;SDS011;1015;49.756;6.994;2023-05-07T05:21:26;4.87;;;2.80;;
2021;SDS011;1015;49.756;6.994;2023-05-07T05:23:54;3.60;;;2.60;;
2021;SDS011;1015;49.756;6.994;2023-05-07T05:26:22;3.57;;;2.90;;
2021;SDS011;1015;49.756;6.994;2023-05-07T05:28:49;3.30;;;3.00;;
2021;SDS011;1015;49.756;6.994;2023-05-07T05:31:16;2.60;;;2.40;;
2021;SDS011;1015;49.756;6.994;2023-05-07T05:33:43;3.27;;;2.97;;
2021;SDS011;1015;49.756;6.994;2023-05-07T05:36:10;3.80;;;3.20;;
2021;SDS011;1015;49.756;6.994;2023-05-07T05:38:38;2.90;;;2.70;;
2021;SDS011;1015;49.756;6.994;2023-05-07T05:41:07;4.20;;;3.30;;
2021;SDS011;1015;49.756;6.994;2023-05-07T05:43:34;4.20;;;3.03;;
2021;SDS011;1015;49.756;6.994;2023-05-07T05:46:01;3.30;;;3.00;;
2021;SDS011;1015;49.756;6.994;2023-05-07T05:48:29;3.97;;;3.10;;
2021;SDS011;1015;49.756;6.994;2023-05-07T05:50:56;3.40;;;3.07;;
2021;SDS011;1015;49.756;6.994;2023-05-07T05:53:23;3.07;;;2.87;;
2021;SDS011;1015;49.756;6.994;2023-05-07T05:55:51;3.33;;;2.67;;
2021;SDS011;1015;49.756;6.994;2023-05-07T05:58:19;3.50;;;2.90;;
2021;SDS011;1015;49.756;6.994;2023-05-07T06:00:46;3.17;;;2.60;;
2021;SDS011;1015;49.756;6.994;2023-05-07T06:03:17;2.70;;;2.50;;
2021;SDS011;1015;49.756;6.994;2023-05-07T06:05:44;4.40;;;2.90;;
2021;SDS011;1015;49.756;6.994;2023-05-07T06:08:11;3.27;;;2.80;;
2021;SDS011;1015;49.756;6.994;2023-05-07T06:10:38;3.17;;;2.37;;
2021;SDS011;1015;49.756;6.994;2023-05-07T06:13:06;2.70;;;2.50;;
2021;SDS011;1015;49.756;6.994;2023-05-07T06:15:34;2.80;;;2.50;;
2021;SDS011;1015;49.756;6.994;2023-05-07T06:18:01;3.20;;;2.90;;
2021;SDS011;1015;49.756;6.994;2023-05-07T06:20:28;3.30;;;2.97;;
2021;SDS011;1015;49.756;6.994;2023-05-07T06:22:56;2.50;;;2.30;;
2021;SDS011;1015;49.756;6.994;2023-05-07T06:25:23;2.50;;;2.30;;
2021;SDS011;1015;49.756;6.994;2023-05-07T06:27:50;2.60;;;2.40;;
2021;SDS011;1015;49.756;6.994;2023-05-07T06:30:17;1.90;;;1.80;;
2021;SDS011;1015;49.756;6.994;2023-05-07T06:32:46;2.30;;;2.10;;
2021;SDS011;1015;49.756;6.994;2023-05-07T06:35:13;2.43;;;2.23;;
2021;SDS011;1015;49.756;6.994;2023-05-07T06:37:40;2.50;;;2.30;;
2021;SDS011;1015;49.756;6.994;2023-05-07T06:40:08;2.90;;;2.33;;
2021;SDS011;1015;49.756;6.994;2023-05-07T06:42:36;2.50;;;2.30;;
2021;SDS011;1015;49.756;6.994;2023-05-07T06:45:04;2.47;;;2.10;;
2021;SDS011;1015;49.756;6.994;2023-05-07T06:47:31;3.83;;;2.10;;
2021;SDS011;1015;49.756;6.994;2023-05-07T06:49:59;3.13;;;2.10;;
2021;SDS011;1015;49.756;6.994;2023-05-07T06:52:27;2.77;;;2.57;;
2021;SDS011;1015;49.756;6.994;2023-05-07T06:54:54;2.03;;;1.93;;
2021;SDS011;1015;49.756;6.994;2023-05-07T06:57:21;2.63;;;2.30;;
2021;SDS011;1015;49.756;6.994;2023-05-07T06:59:48;2.77;;;1.90;;
2021;SDS011;1015;49.756;6.994;2023-05-07T07:02:15;2.10;;;2.00;;
2021;SDS011;1015;49.756;6.994;2023-05-07T07:04:43;2.10;;;2.00;;
2021;SDS011;1015;49.756;6.994;2023-05-07T07:07:11;2.20;;;2.00;;
2021;SDS011;1015;49.756;6.994;2023-05-07T07:09:38;2.53;;;1.90;;
2021;SDS011;1015;49.756;6.994;2023-05-07T07:12:06;1.90;;;1.57;;
2021;SDS011;1015;49.756;6.994;2023-05-07T07:14:33;2.57;;;2.30;;
2021;SDS011;1015;49.756;6.994;2023-05-07T07:17:00;2.87;;;2.10;;
2021;SDS011;1015;49.756;6.994;2023-05-07T07:19:27;1.90;;;1.80;;
2021;SDS011;1015;49.756;6.994;2023-05-07T07:21:54;2.80;;;2.37;;
2021;SDS011;1015;49.756;6.994;2023-05-07T07:24:23;2.37;;;2.17;;
2021;SDS011;1015;49.756;6.994;2023-05-07T07:26:50;2.87;;;2.17;;
2021;SDS011;1015;49.756;6.994;2023-05-07T07:29:17;2.20;;;2.00;;
2021;SDS011;1015;49.756;6.994;2023-05-07T07:31:44;2.50;;;2.30;;
2021;SDS011;1015;49.756;6.994;2023-05-07T07:34:12;2.40;;;2.20;;
2021;SDS011;1015;49.756;6.994;2023-05-07T07:36:39;2.33;;;2.23;;
2021;SDS011;1015;49.756;6.994;2023-05-07T07:39:07;3.67;;;2.20;;
2021;SDS011;1015;49.756;6.994;2023-05-07T07:41:35;2.87;;;2.07;;
2021;SDS011;1015;49.756;6.994;2023-05-07T07:44:03;2.67;;;2.10;;
2021;SDS011;1015;49.756;6.994;2023-05-07T07:46:32;2.40;;;2.20;;
2021;SDS011;1015;49.756;6.994;2023-05-07T07:48:59;2.10;;;1.80;;
2021;SDS011;1015;49.756;6.994;2023-05-07T07:51:26;3.43;;;1.90;;
2021;SDS011;1015;49.756;6.994;2023-05-07T07:53:54;2.57;;;2.10;;
2021;SDS011;1015;49.756;6.994;2023-05-07T07:56:22;2.00;;;1.90;;
2021;SDS011;1015;49.756;6.994;2023-05-07T07:58:51;2.40;;;1.90;;
2021;SDS011;1015;49.756;6.994;2023-05-07T08:01:19;2.40;;;2.20;;
2021;SDS011;1015;49.756;6.994;2023-05-07T08:03:46;2.00;;;1.90;;
2021;SDS011;1015;49.756;6.994;2023-05-07T08:06:13;1.73;;;1.63;;
2021;SDS011;1015;49.756;6.994;2023-05-07T08:08:40;1.90;;;1.80;;
2021;SDS011;1015;49.756;6.994;2023-05-07T08:11:07;1.90;;;1.80;;
2021;SDS011;1015;49.756;6.994;2023-05-07T08:13:35;2.17;;;1.93;;
2021;SDS011;1015;49.756;6.994;2023-05-07T08:16:04;2.03;;;1.90;;
2021;SDS011;1015;49.756;6.994;2023-05-07T08:18:31;2.17;;;1.70;;
2021;SDS011;1015;49.756;6.994;2023-05-07T08:20:58;1.90;;;1.80;;
2021;SDS011;1015;49.756;6.994;2023-05-07T08:23:25;2.63;;;2.23;;
2021;SDS011;1015;49.756;6.994;2023-05-07T08:25:52;2.10;;;1.90;;
2021;SDS011;1015;49.756;6.994;2023-05-07T08:28:20;7.30;;;2.10;;
2021;SDS011;1015;49.756;6.994;2023-05-07T08:30:47;3.17;;;2.33;;
2021;SDS011;1015;49.756;6.994;2023-05-07T08:33:15;4.37;;;2.00;;
2021;SDS011;1015;49.756;6.994;2023-05-07T08:35:43;2.63;;;2.20;;
2021;SDS011;1015;49.756;6.994;2023-05-07T08:38:10;2.47;;;1.73;;
2021;SDS011;1015;49.756;6.994;2023-05-07T08:40:38;1.73;;;1.63;;
2021;SDS011;1015;49.756;6.994;2023-05-07T08:43:06;2.10;;;1.63;;
2021;SDS011;1015;49.756;6.994;2023-05-07T08:45:34;1.90;;;1.50;;
2021;SDS011;1015;49.756;6.994;2023-05-07T08:48:02;2.00;;;1.80;;
2021;SDS011;1015;49.756;6.994;2023-05-07T08:50:32;2.60;;;1.70;;
2021;SDS011;1015;49.756;6.994;2023-05-07T08:53:02;2.40;;;2.00;;
2021;SDS011;1015;49.756;6.994;2023-05-07T08:55:29;2.70;;;2.07;;
2021;SDS011;1015;49.756;6.994;2023-05-07T08:57:58;2.10;;;1.90;;
2021;SDS011;1015;49.756;6.994;2023-05-07T09:00:25;2.63;;;1.70;;
2021;SDS011;1015;49.756;6.994;2023-05-07T09:02:52;2.10;;;2.00;;
2021;SDS011;1015;49.756;6.994;2023-05-07T09:05:20;1.90;;;1.63;;
2021;SDS011;1015;49.756;6.994;2023-05-07T09:07:48;2.30;;;2.10;;
2021;SDS011;1015;49.756;6.994;2023-05-07T09:10:15;1.90;;;1.80;;
2021;SDS011;1015;49.756;6.994;2023-05-07T09:12:43;2.70;;;1.70;;
2021;SDS011;1015;49.756;6.994;2023-05-07T09:15:10;1.80;;;1.70;;
2021;SDS011;1015;49.756;6.994;2023-05-07T09:17:38;3.57;;;2.00;;
2021;SDS011;1015;49.756;6.994;2023-05-07T09:20:06;1.83;;;1.73;;
2021;SDS011;1015;49.756;6.994;2023-05-07T09:22:33;2.67;;;1.67;;
2021;SDS011;1015;49.756;6.994;2023-05-07T09:25:12;1.90;;;1.80;;
2021;SDS011;1015;49.756;6.994;2023-05-07T09:27:41;1.97;;;1.80;;
2021;SDS011;1015;49.756;6.994;2023-05-07T09:30:08;2.20;;;1.80;;
2021;SDS011;1015;49.756;6.994;2023-05-07T09:32:37;2.00;;;1.90;;
2021;SDS011;1015;49.756;6.994;2023-05-07T09:35:14;5.00;;;2.30;;
2021;SDS011;1015;49.756;6.994;2023-05-07T09:37:44;2.10;;;2.00;;
2021;SDS011;1015;49.756;6.994;2023-05-07T09:40:23;2.20;;;2.00;;
2021;SDS011;1015;49.756;6.994;2023-05-07T09:43:13;2.60;;;2.23;;
2021;SDS011;1015;49.756;6.994;2023-05-07T09:45:40;2.27;;;2.07;;
2021;SDS011;1015;49.756;6.994;2023-05-07T09:48:08;2.47;;;2.07;;
2021;SDS011;1015;49.756;6.994;2023-05-07T09:50:40;2.40;;;2.20;;
2021;SDS011;1015;49.756;6.994;2023-05-07T09:53:16;1.90;;;1.80;;
2021;SDS011;1015;49.756;6.994;2023-05-07T09:55:45;4.57;;;2.10;;
2021;SDS011;1015;49.756;6.994;2023-05-07T09:58:14;2.13;;;1.90;;
2021;SDS011;1015;49.756;6.994;2023-05-07T10:00:43;2.40;;;2.00;;
2021;SDS011;1015;49.756;6.994;2023-05-07T10:03:10;1.70;;;1.60;;
2021;SDS011;1015;49.756;6.994;2023-05-07T10:05:39;2.07;;;1.97;;
2021;SDS011;1015;49.756;6.994;2023-05-07T10:08:11;3.37;;;2.43;;
2021;SDS011;1015;49.756;6.994;2023-05-07T10:10:40;2.30;;;2.10;;
2021;SDS011;1015;49.756;6.994;2023-05-07T10:13:09;2.80;;;2.50;;
2021;SDS011;1015;49.756;6.994;2023-05-07T10:15:39;2.77;;;2.57;;
2021;SDS011;1015;49.756;6.994;2023-05-07T10:18:08;2.50;;;2.00;;
2021;SDS011;1015;49.756;6.994;2023-05-07T10:20:40;4.33;;;2.33;;
2021;SDS011;1015;49.756;6.994;2023-05-07T10:23:09;2.33;;;2.13;;
2021;SDS011;1015;49.756;6.994;2023-05-07T10:25:39;2.50;;;2.30;;
2021;SDS011;1015;49.756;6.994;2023-05-07T10:28:07;3.23;;;2.27;;
2021;SDS011;1015;49.756;6.994;2023-05-07T10:30:40;3.47;;;2.50;;
2021;SDS011;1015;49.756;6.994;2023-05-07T10:33:16;2.60;;;2.40;;
2021;SDS011;1015;49.756;6.994;2023-05-07T10:35:45;3.13;;;2.40;;
2021;SDS011;1015;49.756;6.994;2023-05-07T10:38:14;2.53;;;2.33;;
2021;SDS011;1015;49.756;6.994;2023-05-07T10:40:41;3.30;;;2.63;;
2021;SDS011;1015;49.756;6.994;2023-05-07T10:43:09;2.50;;;2.30;;
2021;SDS011;1015;49.756;6.994;2023-05-07T10:45:36;4.73;;;2.57;;
2021;SDS011;1015;49.756;6.994;2023-05-07T10:48:07;2.57;;;2.37;;
2021;SDS011;1015;49.756;6.994;2023-05-07T10:50:35;3.17;;;2.20;;
2021;SDS011;1015;49.756;6.994;2023-05-07T10:58:39;2.50;;;2.30;;
2021;SDS011;1015;49.756;6.994;2023-05-07T11:01:06;3.43;;;2.50;;
2021;SDS011;1015;49.756;6.994;2023-05-07T11:03:34;2.23;;;2.10;;
2021;SDS011;1015;49.756;6.994;2023-05-07T11:06:08;2.37;;;2.20;;
2021;SDS011;1015;49.756;6.994;2023-05-07T11:14:12;2.67;;;2.43;;
2021;SDS011;1015;49.756;6.994;2023-05-07T11:16:39;2.70;;;2.50;;
2021;SDS011;1015;49.756;6.994;2023-05-07T11:19:08;3.00;;;2.40;;
2021;SDS011;1015;49.756;6.994;2023-05-07T11:21:36;2.63;;;2.43;;
2021;SDS011;1015;49.756;6.994;2023-05-07T11:24:03;3.27;;;2.63;;
2021;SDS011;1015;49.756;6.994;2023-05-07T11:26:40;2.60;;;2.40;;
2021;SDS011;1015;49.756;6.994;2023-05-07T11:29:10;2.87;;;2.60;;
2021;SDS011;1015;49.756;6.994;2023-05-07T11:31:38;3.50;;;2.60;;
2021;SDS011;1015;49.756;6.994;2023-05-07T11:34:05;2.80;;;2.60;;
2021;SDS011;1015;49.756;6.994;2023-05-07T11:36:33;2.93;;;2.63;;
2021;SDS011;1015;49.756;6.994;2023-05-07T11:39:01;2.60;;;2.40;;
2021;SDS011;1015;49.756;6.994;2023-05-07T11:41:34;3.07;;;2.70;;
2021;SDS011;1015;49.756;6.994;2023-05-07T11:44:02;3.17;;;2.87;;
2021;SDS011;1015;49.756;6.994;2023-05-07T11:46:29;2.83;;;2.63;;
2021;SDS011;1015;49.756;6.994;2023-05-07T11:48:56;2.93;;;2.60;;
2021;SDS011;1015;49.756;6.994;2023-05-07T11:51:24;3.07;;;2.77;;
2021;SDS011;1015;49.756;6.994;2023-05-07T11:53:53;2.77;;;2.57;;
2021;SDS011;1015;49.756;6.994;2023-05-07T11:56:20;2.53;;;2.33;;
2021;SDS011;1015;49.756;6.994;2023-05-07T11:58:48;3.23;;;2.30;;
2021;SDS011;1015;49.756;6.994;2023-05-07T12:01:17;2.80;;;2.60;;
2021;SDS011;1015;49.756;6.994;2023-05-07T12:03:45;2.90;;;2.60;;
2021;SDS011;1015;49.756;6.994;2023-05-07T12:06:13;2.87;;;2.67;;
2021;SDS011;1015;49.756;6.994;2023-05-07T12:08:40;4.60;;;2.50;;
2021;SDS011;1015;49.756;6.994;2023-05-07T12:11:09;2.83;;;2.53;;
2021;SDS011;1015;49.756;6.994;2023-05-07T12:13:37;2.90;;;2.20;;
2021;SDS011;1015;49.756;6.994;2023-05-07T12:16:05;2.63;;;2.43;;
2021;SDS011;1015;49.756;6.994;2023-05-07T12:18:33;2.73;;;2.20;;
2021;SDS011;1015;49.756;6.994;2023-05-07T12:21:01;2.10;;;2.00;;
2021;SDS011;1015;49.756;6.994;2023-05-07T12:23:28;2.70;;;2.50;;
2021;SDS011;1015;49.756;6.994;2023-05-07T12:25:56;2.47;;;2.27;;
2021;SDS011;1015;49.756;6.994;2023-05-07T12:28:24;3.00;;;2.47;;
2021;SDS011;1015;49.756;6.994;2023-05-07T12:30:51;2.60;;;2.40;;
2021;SDS011;1015;49.756;6.994;2023-05-07T12:33:26;3.30;;;2.23;;
2021;SDS011;1015;49.756;6.994;2023-05-07T12:35:56;2.17;;;1.97;;
2021;SDS011;1015;49.756;6.994;2023-05-07T12:38:23;2.40;;;2.20;;
2021;SDS011;1015;49.756;6.994;2023-05-07T12:40:50;2.50;;;2.30;;
2021;SDS011;1015;49.756;6.994;2023-05-07T12:43:20;2.57;;;2.37;;
2021;SDS011;1015;49.756;6.994;2023-05-07T12:45:50;2.40;;;2.20;;
2021;SDS011;1015;49.756;6.994;2023-05-07T12:48:17;2.13;;;2.00;;
2021;SDS011;1015;49.756;6.994;2023-05-07T12:50:48;2.30;;;2.00;;
2021;SDS011;1015;49.756;6.994;2023-05-07T12:53:16;2.57;;;2.37;;
2021;SDS011;1015;49.756;6.994;2023-05-07T12:55:44;2.13;;;1.90;;
2021;SDS011;1015;49.756;6.994;2023-05-07T12:58:15;2.60;;;2.40;;
2021;SDS011;1015;49.756;6.994;2023-05-07T13:00:43;2.20;;;2.00;;
2021;SDS011;1015;49.756;6.994;2023-05-07T13:03:12;2.30;;;2.10;;
2021;SDS011;1015;49.756;6.994;2023-05-07T13:05:47;3.70;;;2.70;;
2021;SDS011;1015;49.756;6.994;2023-05-07T13:08:22;3.53;;;3.17;;
2021;SDS011;1015;49.756;6.994;2023-05-07T13:10:50;2.93;;;2.73;;
2021;SDS011;1015;49.756;6.994;2023-05-07T13:13:17;3.80;;;3.00;;
2021;SDS011;1015;49.756;6.994;2023-05-07T13:15:45;3.27;;;3.07;;
2021;SDS011;1015;49.756;6.994;2023-05-07T13:18:13;4.27;;;2.90;;
2021;SDS011;1015;49.756;6.994;2023-05-07T13:20:40;3.10;;;2.90;;
2021;SDS011;1015;49.756;6.994;2023-05-07T13:23:08;3.30;;;2.93;;
2021;SDS011;1015;49.756;6.994;2023-05-07T13:25:35;3.30;;;2.97;;
2021;SDS011;1015;49.756;6.994;2023-05-07T13:28:02;3.30;;;3.00;;
2021;SDS011;1015;49.756;6.994;2023-05-07T13:30:29;2.80;;;2.60;;
2021;SDS011;1015;49.756;6.994;2023-05-07T13:32:57;3.27;;;2.97;;
2021;SDS011;1015;49.756;6.994;2023-05-07T13:35:25;2.93;;;2.70;;
2021;SDS011;1015;49.756;6.994;2023-05-07T13:37:52;2.80;;;2.60;;
2021;SDS011;1015;49.756;6.994;2023-05-07T13:40:20;3.37;;;3.07;;
2021;SDS011;1015;49.756;6.994;2023-05-07T13:42:48;3.10;;;2.80;;
2021;SDS011;1015;49.756;6.994;2023-05-07T13:45:15;2.93;;;2.73;;
2021;SDS011;1015;49.756;6.994;2023-05-07T13:47:42;3.43;;;2.77;;
2021;SDS011;1015;49.756;6.994;2023-05-07T13:50:10;3.37;;;3.07;;
2021;SDS011;1015;49.756;6.994;2023-05-07T13:52:40;3.73;;;3.00;;
2021;SDS011;1015;49.756;6.994;2023-05-07T13:55:08;3.30;;;3.07;;
2021;SDS011;1015;49.756;6.994;2023-05-07T13:57:35;4.27;;;3.13;;
2021;SDS011;1015;49.756;6.994;2023-05-07T14:00:03;3.30;;;2.73;;
2021;SDS011;1015;49.756;6.994;2023-05-07T14:02:31;2.23;;;2.03;;
2021;SDS011;1015;49.756;6.994;2023-05-07T14:04:58;2.17;;;1.97;;
2021;SDS011;1015;49.756;6.994;2023-05-07T14:07:25;2.13;;;2.03;;
2021;SDS011;1015;49.756;6.994;2023-05-07T14:09:54;4.03;;;2.47;;
2021;SDS011;1015;49.756;6.994;2023-05-07T14:12:22;2.80;;;2.60;;
2021;SDS011;1015;49.756;6.994;2023-05-07T14:14:49;2.37;;;2.27;;
2021;SDS011;1015;49.756;6.994;2023-05-07T14:17:16;3.00;;;2.70;;
2021;SDS011;1015;49.756;6.994;2023-05-07T14:19:43;3.00;;;2.60;;
2021;SDS011;1015;49.756;6.994;2023-05-07T14:22:13;2.40;;;2.20;;
2021;SDS011;1015;49.756;6.994;2023-05-07T14:24:40;3.43;;;3.13;;
2021;SDS011;1015;49.756;6.994;2023-05-07T14:27:09;2.90;;;2.70;;
2021;SDS011;1015;49.756;6.994;2023-05-07T14:29:36;2.70;;;2.50;;
2021;SDS011;1015;49.756;6.994;2023-05-07T14:32:03;2.90;;;2.60;;
2021;SDS011;1015;49.756;6.994;2023-05-07T14:34:31;2.10;;;2.00;;
2021;SDS011;1015;49.756;6.994;2023-05-07T14:36:59;2.90;;;2.20;;
2021;SDS011;1015;49.756;6.994;2023-05-07T14:39:26;2.67;;;2.47;;
2021;SDS011;1015;49.756;6.994;2023-05-07T14:41:53;3.83;;;2.60;;
2021;SDS011;1015;49.756;6.994;2023-05-07T14:44:22;2.50;;;2.30;;
2021;SDS011;1015;49.756;6.994;2023-05-07T14:46:49;2.70;;;2.50;;
2021;SDS011;1015;49.756;6.994;2023-05-07T14:49:16;3.50;;;2.60;;
2021;SDS011;1015;49.756;6.994;2023-05-07T14:51:44;2.70;;;2.50;;
2021;SDS011;1015;49.756;6.994;2023-05-07T14:54:11;2.40;;;2.20;;
2021;SDS011;1015;49.756;6.994;2023-05-07T14:56:39;2.27;;;2.17;;
2021;SDS011;1015;49.756;6.994;2023-05-07T14:59:06;2.90;;;2.60;;
2021;SDS011;1015;49.756;6.994;2023-05-07T15:01:36;2.50;;;2.30;;
2021;SDS011;1015;49.756;6.994;2023-05-07T15:04:08;2.80;;;2.57;;
2021;SDS011;1015;49.756;6.994;2023-05-07T15:06:35;2.70;;;2.50;;
2021;SDS011;1015;49.756;6.994;2023-05-07T15:09:02;3.30;;;2.50;;
2021;SDS011;1015;49.756;6.994;2023-05-07T15:11:30;3.53;;;2.47;;
2021;SDS011;1015;49.756;6.994;2023-05-07T15:13:58;2.70;;;2.30;;
2021;SDS011;1015;49.756;6.994;2023-05-07T15:16:25;2.40;;;2.30;;
2021;SDS011;1015;49.756;6.994;2023-05-07T15:18:54;2.60;;;2.40;;
2021;SDS011;1015;49.756;6.994;2023-05-07T15:21:22;2.83;;;2.63;;
2021;SDS011;1015;49.756;6.994;2023-05-07T15:23:49;2.73;;;2.53;;
2021;SDS011;1015;49.756;6.994;2023-05-07T15:26:16;2.63;;;2.43;;
2021;SDS011;1015;49.756;6.994;2023-05-07T15:28:44;2.40;;;2.20;;
2021;SDS011;1015;49.756;6.994;2023-05-07T15:31:11;2.97;;;2.40;;